SACO/COR METAR and TAF weather

Enter ICAO airport designator
Station Type Date Time Source
SACO METAR 2019/12/10 06:00 UTC NOAA

SACO 100600Z 30006KT CAVOK 20/13 Q1011 NOSIG


Station Type Date Time Source
SACO Decoded METAR 2019/12/10 06:00 UTC NOAA

Cordoba Aerodrome, Argentina (SACO) 31-19S 064-13W 474M
Dec 10, 2019 - 01:00 AM EST / 2019.12.10 0600 UTC
Wind: from the WNW (300 degrees) at 7 MPH (6 KT):0
Visibility: greater than 7 mile(s):0
Temperature: 68 F (20 C)
Dew Point: 55 F (13 C)
Relative Humidity: 64%
Pressure (altimeter): 29.85 in. Hg (1011 hPa)
ob: SACO 100600Z 30006KT CAVOK 20/13 Q1011 NOSIG
cycle: 6

Station Type Date Time Source
SACO TAF 2019/12/10 06:18 UTC NOAA

TAF TAF SACO 100500Z 1006/1106 36010KT 9999 SCT035 TX37/1019Z TN18/1010Z
BECMG 1010/1012 02015KT 9999 SCT030 FEW040CB

Example: see airport list